createdAt,value
2022-11-12T00:02:01.418Z,100.00
2022-11-12T00:04:46.401Z,100.00
2022-11-12T00:07:31.540Z,100.00
2022-11-12T00:10:18.065Z,100.00
2022-11-12T00:13:04.482Z,100.00
2022-11-12T00:15:49.707Z,100.00
2022-11-12T00:18:35.233Z,100.00
2022-11-12T00:21:20.498Z,100.00
2022-11-12T00:24:06.050Z,100.00
2022-11-12T00:26:51.495Z,100.00
2022-11-12T00:29:36.640Z,100.00
2022-11-12T00:32:21.784Z,100.00
2022-11-12T00:35:11.135Z,100.00
2022-11-12T00:38:00.553Z,100.00
2022-11-12T00:40:45.872Z,100.00
2022-11-12T00:43:31.053Z,100.00
2022-11-12T00:46:16.113Z,100.00
2022-11-12T00:49:01.324Z,100.00
2022-11-12T00:51:46.496Z,100.00
2022-11-12T00:54:31.633Z,100.00
2022-11-12T00:57:16.816Z,100.00
2022-11-12T01:00:03.760Z,100.00
2022-11-12T01:02:51.383Z,100.00
2022-11-12T01:05:36.812Z,100.00
2022-11-12T01:08:21.845Z,100.00
2022-11-12T01:11:14.530Z,100.00
2022-11-12T01:14:07.807Z,100.00
2022-11-12T01:16:53.507Z,100.00
2022-11-12T01:19:38.889Z,100.00
2022-11-12T01:22:24.136Z,100.00
2022-11-12T01:25:09.754Z,100.00
2022-11-12T01:27:55.182Z,100.00
2022-11-12T01:30:40.283Z,100.00
2022-11-12T01:33:25.364Z,100.00
2022-11-12T01:36:11.771Z,100.00
2022-11-12T01:38:57.107Z,100.00
2022-11-12T01:41:43.171Z,100.00
2022-11-12T01:44:32.334Z,100.00
2022-11-12T01:47:34.465Z,100.00
2022-11-12T01:50:35.441Z,100.00
2022-11-12T01:53:27.870Z,100.00
2022-11-12T01:56:16.318Z,100.00
2022-11-12T01:59:14.449Z,100.00
2022-11-12T02:02:00.035Z,100.00
2022-11-12T02:04:47.487Z,100.00
2022-11-12T02:07:34.224Z,100.00
2022-11-12T02:10:22.297Z,100.00
2022-11-12T02:13:27.182Z,100.00
2022-11-12T02:16:12.587Z,100.00
2022-11-12T02:18:57.887Z,100.00
2022-11-12T02:21:44.681Z,100.00
2022-11-12T02:24:35.284Z,100.00
2022-11-12T02:27:21.639Z,100.00
2022-11-12T02:30:08.169Z,100.00
2022-11-12T02:32:53.654Z,100.00
2022-11-12T02:35:38.547Z,100.00
2022-11-12T02:38:23.661Z,100.00
2022-11-12T02:41:09.101Z,100.00
2022-11-12T02:43:54.285Z,100.00
2022-11-12T02:46:39.217Z,100.00
2022-11-12T02:49:24.411Z,100.00
2022-11-12T02:52:09.458Z,100.00
2022-11-12T02:54:54.454Z,100.00
2022-11-12T02:57:40.640Z,100.00
2022-11-12T03:00:26.324Z,100.00
2022-11-12T03:03:11.383Z,100.00
2022-11-12T03:06:00.046Z,100.00
2022-11-12T03:08:45.580Z,100.00
2022-11-12T03:11:30.795Z,100.00
2022-11-12T03:14:16.011Z,100.00
2022-11-12T03:17:01.219Z,100.00
2022-11-12T03:19:46.310Z,100.00
2022-11-12T03:22:31.312Z,100.00
2022-11-12T03:25:16.386Z,100.00
2022-11-12T03:28:13.493Z,100.00
2022-11-12T03:31:00.483Z,100.00
2022-11-12T03:33:46.121Z,100.00
2022-11-12T03:36:31.742Z,100.00
2022-11-12T03:39:16.772Z,100.00
2022-11-12T03:42:01.857Z,100.00
2022-11-12T03:44:46.971Z,100.00
2022-11-12T03:47:31.828Z,100.00
2022-11-12T03:50:19.799Z,100.00
2022-11-12T03:53:04.853Z,100.00
2022-11-12T03:55:49.938Z,100.00
2022-11-12T03:58:34.871Z,100.00
2022-11-12T04:01:20.362Z,100.00
2022-11-12T04:04:05.558Z,100.00
2022-11-12T04:07:08.855Z,100.00
2022-11-12T04:09:53.944Z,100.00
2022-11-12T04:12:57.400Z,100.00
2022-11-12T04:15:42.707Z,100.00
2022-11-12T04:18:46.474Z,100.00
2022-11-12T04:21:51.444Z,100.00
2022-11-12T04:25:00.934Z,100.00
2022-11-12T04:27:46.302Z,100.00
2022-11-12T04:30:31.411Z,100.00
2022-11-12T04:33:16.541Z,100.00
2022-11-12T04:36:01.464Z,100.00
2022-11-12T04:38:46.538Z,100.00
2022-11-12T04:41:50.350Z,100.00
2022-11-12T04:45:01.875Z,100.00
2022-11-12T04:47:47.081Z,100.00
2022-11-12T04:50:33.065Z,100.00
2022-11-12T04:53:18.313Z,100.00
2022-11-12T04:56:04.067Z,100.00
2022-11-12T04:58:49.110Z,100.00
2022-11-12T05:01:34.121Z,100.00
2022-11-12T05:04:19.351Z,100.00
2022-11-12T05:07:04.652Z,100.00
2022-11-12T05:09:49.997Z,100.00
2022-11-12T05:12:35.344Z,100.00
2022-11-12T05:15:20.865Z,100.00
2022-11-12T05:18:06.048Z,100.00
2022-11-12T05:20:53.663Z,100.00
2022-11-12T05:23:38.676Z,100.00
2022-11-12T05:26:23.661Z,100.00
2022-11-12T05:29:09.227Z,100.00
2022-11-12T05:31:55.348Z,100.00
2022-11-12T05:34:40.757Z,100.00
2022-11-12T05:37:29.380Z,100.00
2022-11-12T05:40:14.882Z,100.00
2022-11-12T05:43:00.190Z,100.00
2022-11-12T05:45:45.501Z,100.00
2022-11-12T05:48:31.788Z,100.00
2022-11-12T05:51:17.595Z,100.00
2022-11-12T05:54:04.063Z,100.00
2022-11-12T05:56:53.516Z,100.00
2022-11-12T05:59:38.638Z,100.00
2022-11-12T06:02:23.871Z,100.00
2022-11-12T06:05:10.089Z,100.00
2022-11-12T06:07:55.733Z,100.00
2022-11-12T06:10:41.254Z,100.00
2022-11-12T06:13:27.050Z,100.00
2022-11-12T06:16:12.276Z,100.00
2022-11-12T06:18:57.986Z,100.00
2022-11-12T06:21:43.388Z,100.00
2022-11-12T06:24:35.126Z,100.00
2022-11-12T06:27:20.855Z,100.00
2022-11-12T06:30:08.528Z,100.00
2022-11-12T06:32:53.870Z,100.00
2022-11-12T06:35:42.763Z,100.00
2022-11-12T06:38:35.114Z,100.00
2022-11-12T06:41:20.738Z,100.00
2022-11-12T06:44:06.721Z,100.00
2022-11-12T06:46:51.977Z,100.00
2022-11-12T06:49:37.337Z,100.00
2022-11-12T06:52:22.883Z,100.00
2022-11-12T06:55:10.900Z,100.00
2022-11-12T06:57:56.159Z,100.00
2022-11-12T07:00:41.610Z,100.00
2022-11-12T07:03:26.911Z,100.00
2022-11-12T07:06:15.211Z,100.00
2022-11-12T07:09:00.686Z,100.00
2022-11-12T07:11:45.651Z,100.00
2022-11-12T07:14:30.799Z,100.00
2022-11-12T07:17:15.971Z,100.00
2022-11-12T07:20:03.914Z,100.00
2022-11-12T07:22:49.870Z,100.00
2022-11-12T07:25:35.018Z,100.00
2022-11-12T07:28:20.203Z,100.00
2022-11-12T07:31:10.392Z,100.00
2022-11-12T07:33:55.930Z,100.00
2022-11-12T07:36:40.930Z,100.00
2022-11-12T07:39:26.097Z,100.00
2022-11-12T07:42:11.353Z,100.00
2022-11-12T07:44:56.715Z,100.00
2022-11-12T07:47:41.693Z,100.00
2022-11-12T07:50:26.780Z,100.00
2022-11-12T07:53:11.820Z,100.00
2022-11-12T07:56:00.662Z,100.00
2022-11-12T07:58:47.251Z,100.00
2022-11-12T08:01:39.002Z,100.00
2022-11-12T08:04:24.521Z,100.00
2022-11-12T08:07:09.935Z,100.00
2022-11-12T08:09:55.401Z,100.00
2022-11-12T08:12:40.702Z,100.00
2022-11-12T08:15:26.427Z,100.00
2022-11-12T08:18:11.618Z,100.00
2022-11-12T08:21:05.353Z,100.00
2022-11-12T08:23:50.606Z,100.00
2022-11-12T08:26:35.877Z,100.00
2022-11-12T08:29:23.235Z,100.00
2022-11-12T08:32:08.274Z,100.00
2022-11-12T08:34:53.386Z,100.00
2022-11-12T08:37:38.552Z,100.00
2022-11-12T08:40:23.663Z,100.00
2022-11-12T08:43:11.137Z,100.00
2022-11-12T08:46:00.057Z,100.00
2022-11-12T08:48:45.117Z,100.00
2022-11-12T08:51:30.363Z,100.00
2022-11-12T08:54:15.580Z,100.00
2022-11-12T08:57:00.836Z,100.00
2022-11-12T08:59:45.969Z,100.00
2022-11-12T09:02:31.041Z,100.00
2022-11-12T09:05:16.296Z,100.00
2022-11-12T09:08:09.256Z,100.00
2022-11-12T09:10:54.849Z,100.00
2022-11-12T09:13:40.441Z,100.00
2022-11-12T09:16:25.484Z,100.00
2022-11-12T09:19:10.771Z,100.00
2022-11-12T09:21:55.848Z,100.00
2022-11-12T09:24:43.642Z,100.00
2022-11-12T09:27:30.000Z,100.00
2022-11-12T09:30:15.942Z,100.00
2022-11-12T09:33:01.353Z,100.00
2022-11-12T09:35:47.900Z,100.00
2022-11-12T09:38:33.498Z,100.00
2022-11-12T09:41:31.395Z,100.00
2022-11-12T09:44:19.890Z,100.00
2022-11-12T09:47:36.945Z,100.00
2022-11-12T09:50:27.690Z,100.00
2022-11-12T09:53:21.756Z,100.00
2022-11-12T09:56:12.890Z,100.00
2022-11-12T09:58:58.279Z,100.00
2022-11-12T10:02:00.506Z,100.00
2022-11-12T10:05:10.948Z,100.00
2022-11-12T10:08:07.923Z,100.00
2022-11-12T10:11:18.506Z,100.00
2022-11-12T10:14:13.604Z,100.00
2022-11-12T10:17:50.113Z,100.00
2022-11-12T10:21:10.189Z,100.00
2022-11-12T10:23:55.403Z,100.00
2022-11-12T10:26:40.986Z,100.00
2022-11-12T10:29:36.411Z,100.00
2022-11-12T10:32:21.829Z,100.00
2022-11-12T10:35:07.667Z,99.25
2022-11-12T10:38:02.643Z,99.59
2022-11-12T10:40:48.033Z,99.36
2022-11-12T10:43:33.308Z,97.11
2022-11-12T10:46:22.746Z,95.49
2022-11-12T10:49:13.781Z,97.19
2022-11-12T10:52:00.188Z,94.42
2022-11-12T10:54:48.567Z,94.33
2022-11-12T10:57:36.496Z,90.02
2022-11-12T11:00:22.112Z,89.20
2022-11-12T11:03:22.090Z,90.25
2022-11-12T11:06:24.617Z,87.31
2022-11-12T11:09:12.600Z,85.35
2022-11-12T11:11:58.567Z,84.91
2022-11-12T11:14:44.618Z,86.70
2022-11-12T11:17:30.476Z,85.98
2022-11-12T11:20:27.228Z,86.01
2022-11-12T11:23:26.402Z,83.21
2022-11-12T11:26:23.635Z,85.03
2022-11-12T11:29:34.173Z,83.09
2022-11-12T11:32:25.057Z,82.27
2022-11-12T11:35:40.376Z,81.30
2022-11-12T11:39:16.371Z,80.98
2022-11-12T11:42:39.633Z,83.44
2022-11-12T11:46:02.431Z,80.93
2022-11-12T11:48:54.316Z,79.66
2022-11-12T11:51:56.971Z,80.13
2022-11-12T11:55:28.451Z,78.91
2022-11-12T11:58:40.709Z,79.12
2022-11-12T12:02:02.262Z,77.10
2022-11-12T12:04:56.887Z,79.48
2022-11-12T12:08:12.673Z,79.65
2022-11-12T12:11:12.069Z,78.25
2022-11-12T12:14:20.632Z,80.38
2022-11-12T12:17:48.901Z,78.62
2022-11-12T12:21:02.418Z,78.08
2022-11-12T12:23:56.596Z,77.68
2022-11-12T12:26:53.380Z,76.56
2022-11-12T12:29:49.199Z,77.95
2022-11-12T12:33:24.112Z,75.97
2022-11-12T12:36:38.920Z,76.68
2022-11-12T12:39:57.372Z,76.68
2022-11-12T12:42:55.236Z,76.26
2022-11-12T12:45:47.161Z,73.98
2022-11-12T12:48:42.116Z,74.75
2022-11-12T12:51:32.607Z,73.22
2022-11-12T12:54:50.371Z,69.73
2022-11-12T12:57:40.648Z,68.73
2022-11-12T13:00:39.762Z,67.03
2022-11-12T13:03:43.697Z,66.05
2022-11-12T13:06:54.619Z,67.42
2022-11-12T13:09:40.356Z,65.64
2022-11-12T13:13:18.773Z,64.97
2022-11-12T13:16:04.534Z,65.79
2022-11-12T13:18:49.889Z,67.17
2022-11-12T13:21:35.179Z,66.36
2022-11-12T13:25:24.041Z,66.78
2022-11-12T13:28:10.773Z,68.15
2022-11-12T13:30:59.013Z,66.61
2022-11-12T13:33:44.635Z,68.38
2022-11-12T13:36:30.909Z,67.55
2022-11-12T13:39:20.212Z,68.26
2022-11-12T13:42:37.116Z,67.67
2022-11-12T13:45:27.096Z,67.99
2022-11-12T13:48:36.900Z,66.23
2022-11-12T13:51:39.081Z,65.35
2022-11-12T13:54:37.749Z,64.57
2022-11-12T13:57:29.878Z,66.63
2022-11-12T14:00:18.187Z,66.66
2022-11-12T14:03:08.220Z,67.52
2022-11-12T14:05:54.872Z,67.57
2022-11-12T14:08:51.707Z,67.43
2022-11-12T14:12:23.552Z,68.62
2022-11-12T14:15:24.893Z,70.30
2022-11-12T14:18:25.242Z,72.16
2022-11-12T14:21:18.727Z,72.53
2022-11-12T14:24:05.075Z,73.19
2022-11-12T14:26:50.581Z,74.36
2022-11-12T14:29:39.905Z,75.85
2022-11-12T14:32:27.645Z,76.28
2022-11-12T14:35:36.907Z,76.75
2022-11-12T14:38:33.318Z,77.15
2022-11-12T14:41:30.794Z,78.21
2022-11-12T14:44:42.754Z,78.87
2022-11-12T14:47:28.193Z,79.72
2022-11-12T14:50:25.044Z,80.78
2022-11-12T14:53:25.408Z,81.60
2022-11-12T14:56:35.312Z,81.62
2022-11-12T14:59:21.721Z,81.91
2022-11-12T15:05:23.608Z,82.99
2022-11-12T15:08:12.396Z,84.39
2022-11-12T15:11:21.675Z,84.76
2022-11-12T15:14:21.732Z,86.20
2022-11-12T15:17:07.028Z,86.10
2022-11-12T15:19:52.569Z,86.72
2022-11-12T15:22:38.131Z,87.75
2022-11-12T15:25:30.996Z,88.82
2022-11-12T15:28:25.419Z,89.24
2022-11-12T15:31:21.106Z,90.26
2022-11-12T15:34:41.653Z,91.22
2022-11-12T15:37:42.469Z,92.42
2022-11-12T15:40:29.211Z,93.45
2022-11-12T15:43:23.522Z,92.69
2022-11-12T15:46:17.893Z,92.63
2022-11-12T15:49:03.632Z,94.51
2022-11-12T15:51:49.171Z,96.14
2022-11-12T15:54:39.752Z,96.17
2022-11-12T15:57:32.073Z,95.90
2022-11-12T16:00:30.446Z,95.62
2022-11-12T16:03:19.658Z,95.55
2022-11-12T16:06:09.351Z,96.93
2022-11-12T16:08:54.873Z,99.80
2022-11-12T16:11:40.331Z,100.00
2022-11-12T16:14:27.250Z,100.00
2022-11-12T16:17:18.668Z,100.00
2022-11-12T16:20:13.341Z,100.00
2022-11-12T16:22:58.821Z,100.00
2022-11-12T16:25:45.321Z,100.00
2022-11-12T16:28:30.342Z,100.00
2022-11-12T16:31:15.784Z,100.00
2022-11-12T16:34:01.134Z,100.00
2022-11-12T16:36:47.631Z,100.00
2022-11-12T16:39:32.991Z,100.00
2022-11-12T16:42:18.369Z,100.00
2022-11-12T16:45:04.034Z,100.00
2022-11-12T16:47:55.823Z,100.00
2022-11-12T16:50:41.012Z,100.00
2022-11-12T16:53:26.471Z,100.00
2022-11-12T16:56:19.577Z,100.00
2022-11-12T16:59:05.429Z,100.00
2022-11-12T17:01:50.619Z,100.00
2022-11-12T17:04:35.830Z,100.00
2022-11-12T17:07:21.087Z,100.00
2022-11-12T17:10:07.150Z,100.00
2022-11-12T17:12:52.944Z,100.00
2022-11-12T17:15:38.249Z,100.00
2022-11-12T17:18:23.595Z,100.00
2022-11-12T17:21:14.643Z,100.00
2022-11-12T17:23:59.699Z,100.00
2022-11-12T17:26:46.364Z,100.00
2022-11-12T17:29:31.460Z,100.00
2022-11-12T17:32:16.658Z,100.00
2022-11-12T17:35:01.910Z,100.00
2022-11-12T17:37:47.041Z,100.00
2022-11-12T17:40:32.304Z,100.00
2022-11-12T17:43:17.397Z,100.00
2022-11-12T17:46:05.483Z,100.00
2022-11-12T17:48:51.534Z,100.00
2022-11-12T17:51:37.494Z,100.00
2022-11-12T17:54:22.803Z,100.00
2022-11-12T17:57:08.169Z,100.00
2022-11-12T17:59:53.534Z,100.00
2022-11-12T18:02:39.175Z,100.00
2022-11-12T18:05:25.862Z,100.00
2022-11-12T18:08:11.083Z,100.00
2022-11-12T18:10:56.412Z,100.00
2022-11-12T18:13:41.792Z,100.00
2022-11-12T18:16:29.283Z,100.00
2022-11-12T18:19:15.712Z,100.00
2022-11-12T18:22:02.268Z,100.00
2022-11-12T18:24:48.068Z,100.00
2022-11-12T18:27:33.598Z,100.00
2022-11-12T18:30:19.643Z,100.00
2022-11-12T18:33:05.938Z,100.00
2022-11-12T18:36:10.116Z,100.00
2022-11-12T18:38:56.294Z,100.00
2022-11-12T18:41:41.578Z,100.00
2022-11-12T18:44:26.732Z,100.00
2022-11-12T18:47:11.871Z,100.00
2022-11-12T18:49:58.124Z,100.00
2022-11-12T18:52:44.089Z,100.00
2022-11-12T18:55:29.532Z,100.00
2022-11-12T18:58:14.704Z,100.00
2022-11-12T19:01:12.672Z,100.00
2022-11-12T19:03:58.379Z,100.00
2022-11-12T19:06:45.388Z,100.00
2022-11-12T19:09:30.503Z,100.00
2022-11-12T19:12:15.659Z,100.00
2022-11-12T19:15:00.951Z,100.00
2022-11-12T19:17:46.087Z,100.00
2022-11-12T19:20:32.226Z,100.00
2022-11-12T19:23:17.570Z,100.00
2022-11-12T19:26:05.555Z,100.00
2022-11-12T19:28:51.341Z,100.00
2022-11-12T19:31:36.946Z,100.00
2022-11-12T19:34:22.379Z,100.00
2022-11-12T19:37:34.662Z,100.00
2022-11-12T19:40:13.047Z,100.00
2022-11-12T19:42:58.369Z,100.00
2022-11-12T19:45:43.623Z,100.00
2022-11-12T19:48:29.569Z,100.00
2022-11-12T19:51:15.051Z,100.00
2022-11-12T19:54:01.879Z,100.00
2022-11-12T19:56:47.178Z,100.00
2022-11-12T19:59:32.458Z,100.00
2022-11-12T20:02:17.912Z,100.00
2022-11-12T20:05:04.436Z,100.00
2022-11-12T20:07:50.512Z,100.00
2022-11-12T20:10:36.130Z,100.00
2022-11-12T20:13:21.895Z,100.00
2022-11-12T20:16:13.514Z,100.00
2022-11-12T20:18:59.718Z,100.00
2022-11-12T20:21:44.892Z,100.00
2022-11-12T20:24:30.109Z,100.00
2022-11-12T20:27:15.873Z,100.00
2022-11-12T20:30:01.035Z,100.00
2022-11-12T20:32:46.133Z,100.00
2022-11-12T20:35:37.273Z,100.00
2022-11-12T20:38:22.356Z,100.00
2022-11-12T20:41:14.684Z,100.00
2022-11-12T20:44:02.926Z,100.00
2022-11-12T20:46:48.019Z,100.00
2022-11-12T20:49:33.148Z,100.00
2022-11-12T20:52:18.598Z,100.00
2022-11-12T20:55:04.381Z,100.00
2022-11-12T20:57:49.828Z,100.00
2022-11-12T21:00:35.160Z,100.00
2022-11-12T21:03:20.706Z,100.00
2022-11-12T21:06:13.595Z,100.00
2022-11-12T21:09:00.279Z,100.00
2022-11-12T21:11:45.763Z,100.00
2022-11-12T21:14:31.117Z,100.00
2022-11-12T21:17:16.463Z,100.00
2022-11-12T21:20:01.764Z,100.00
2022-11-12T21:22:47.126Z,100.00
2022-11-12T21:25:40.117Z,100.00
2022-11-12T21:28:25.533Z,100.00
2022-11-12T21:31:18.607Z,100.00
2022-11-12T21:34:04.621Z,100.00
2022-11-12T21:36:50.121Z,100.00
2022-11-12T21:39:35.295Z,100.00
2022-11-12T21:42:20.492Z,100.00
2022-11-12T21:45:06.206Z,100.00
2022-11-12T21:47:51.597Z,100.00
2022-11-12T21:50:36.620Z,100.00
2022-11-12T21:53:22.130Z,100.00
2022-11-12T21:56:17.607Z,100.00
2022-11-12T21:59:05.076Z,100.00
2022-11-12T22:01:50.583Z,100.00
2022-11-12T22:04:35.881Z,100.00
2022-11-12T22:07:21.119Z,100.00
2022-11-12T22:10:06.888Z,100.00
2022-11-12T22:13:19.919Z,100.00
2022-11-12T22:15:58.779Z,100.00
2022-11-12T22:18:46.366Z,100.00
2022-11-12T22:21:39.455Z,100.00
2022-11-12T22:24:25.133Z,100.00
2022-11-12T22:27:10.312Z,100.00
2022-11-12T22:29:55.296Z,100.00
2022-11-12T22:32:40.614Z,100.00
2022-11-12T22:35:25.724Z,100.00
2022-11-12T22:38:11.590Z,100.00
2022-11-12T22:41:05.430Z,100.00
2022-11-12T22:43:54.277Z,100.00
2022-11-12T22:46:39.400Z,100.00
2022-11-12T22:49:24.532Z,100.00
2022-11-12T22:52:09.724Z,100.00
2022-11-12T22:54:54.574Z,100.00
2022-11-12T22:57:39.916Z,100.00
2022-11-12T23:00:32.016Z,100.00
2022-11-12T23:03:18.338Z,100.00
2022-11-12T23:06:06.353Z,100.00
2022-11-12T23:08:53.648Z,100.00
2022-11-12T23:11:39.109Z,100.00
2022-11-12T23:14:24.255Z,100.00
2022-11-12T23:17:09.457Z,100.00
2022-11-12T23:19:54.597Z,100.00
2022-11-12T23:22:39.678Z,100.00
2022-11-12T23:25:24.623Z,100.00
2022-11-12T23:28:09.844Z,100.00
2022-11-12T23:30:54.987Z,100.00
2022-11-12T23:33:48.648Z,100.00
2022-11-12T23:36:33.815Z,100.00
2022-11-12T23:39:18.841Z,100.00
2022-11-12T23:42:04.097Z,100.00
2022-11-12T23:44:49.623Z,100.00
2022-11-12T23:47:34.789Z,100.00
2022-11-12T23:50:20.067Z,100.00
2022-11-12T23:53:05.303Z,100.00
2022-11-12T23:55:50.545Z,100.00
2022-11-12T23:58:38.306Z,100.00
